Terminal Aerodrome Forecast
Issued by NWS

Home | Current Version | Previous Version | Text Only | Print | Product List | Glossary On
Versions: 1 2 3 4 5 6 7 8 9 10 11 12 13 14 15 16 17 18 19 20 21 22 23 24 25 26 27 28 29 30 31 32 33 34 35 36 37 38 39 40 41 42 43 44 45 46 47 48 49 50
000
FTUS44 KHGX 261724
TAFUTS
TAF
KUTS 261724Z 2618/2718 12005KT P6SM VCSH SCT020 BKN160
      TEMPO 2618/2620 TSRA BKN020CB
     FM262000 12005KT P6SM FEW040 BKN160
     FM270300 16004KT 6SM BR SCT020
     FM270600 13008KT 5SM BR SCT006 BKN012
     FM271300 06009KT 5SM BR VCTS BKN007 BKN020 BKN040CB=

USA.gov is the U.S. government's official web portal to all federal, state and local government web resources and services.